Time;durP1;ratioP1;P1;durP2;ratioP2;P2;SDS_P1;SDS_P2;PMS_P1;PMS_P2;Temp;Humidity;BMP_temperature;BMP_pressure;BME280_temperature;BME280_humidity;BME280_pressure;Samples;Min_cycle;Max_cycle;Signal;HPM_P1;HPM_P2
2021/08/29 00:01:49;;;;;;;;;4.00;4.00;;;;;18.89;100.00;101998.00;5100962;27;45363;-66
2021/08/29 00:07:36;;;;;;;;;6.00;5.25;;;;;18.82;100.00;101994.66;5100350;27;45528;-66
2021/08/29 00:10:08;;;;;;;;;5.25;5.25;;;;;18.79;100.00;101992.09;5100340;27;45406;-66
2021/08/29 00:12:34;;;;;;;;;5.00;4.00;;;;;18.73;100.00;101981.66;5100755;27;45228;-67
2021/08/29 00:15:00;;;;;;;;;5.75;5.00;;;;;18.73;100.00;101986.97;5100315;27;46238;-66
2021/08/29 00:17:25;;;;;;;;;5.00;3.75;;;;;18.66;100.00;101980.13;5099974;27;45366;-67
2021/08/29 00:19:51;;;;;;;;;5.75;5.00;;;;;18.73;100.00;101983.44;5100509;27;45396;-67
2021/08/29 00:22:16;;;;;;;;;5.00;5.00;;;;;18.67;100.00;101984.50;5100208;27;45402;-65
2021/08/29 00:24:42;;;;;;;;;5.25;5.00;;;;;18.65;100.00;101981.91;5100393;27;45441;-65
2021/08/29 00:27:11;;;;;;;;;5.00;4.00;;;;;18.61;100.00;101974.94;5100352;27;45454;-65
2021/08/29 00:29:37;;;;;;;;;5.00;5.00;;;;;18.61;100.00;101980.22;5100300;27;45336;-64
2021/08/29 00:38:08;;;;;;;;;5.25;5.00;;;;;18.56;100.00;101974.19;5096854;27;45399;-66
2021/08/29 00:40:34;;;;;;;;;6.50;4.00;;;;;18.52;100.00;101969.88;5098792;27;45383;-67
2021/08/29 00:43:01;;;;;;;;;6.00;5.00;;;;;18.53;100.00;101970.75;5098738;27;45531;-66
2021/08/29 00:45:27;;;;;;;;;5.50;5.50;;;;;18.54;100.00;101972.47;5099687;27;46739;-67
2021/08/29 00:47:52;;;;;;;;;5.50;4.00;;;;;18.51;100.00;101970.78;5100132;27;45260;-66
2021/08/29 00:50:18;;;;;;;;;5.00;4.00;;;;;18.52;100.00;101975.16;5100035;27;45309;-67
2021/08/29 00:52:44;;;;;;;;;5.25;4.25;;;;;18.40;100.00;101958.78;5099954;27;45345;-67
2021/08/29 00:55:10;;;;;;;;;5.50;4.00;;;;;18.46;100.00;101969.19;5099536;27;45372;-67
2021/08/29 00:57:40;;;;;;;;;5.00;4.00;;;;;18.48;100.00;101970.88;5099863;27;45343;-64
2021/08/29 01:00:07;;;;;;;;;6.25;4.00;;;;;18.42;100.00;101955.19;5099939;27;45469;-66
2021/08/29 01:02:34;;;;;;;;;4.00;3.50;;;;;18.47;100.00;101970.91;5099847;27;45359;-67
2021/08/29 01:05:23;;;;;;;;;4.00;3.00;;;;;18.46;100.00;101964.75;5099652;27;46507;-66
2021/08/29 01:08:03;;;;;;;;;6.75;6.00;;;;;18.42;100.00;101965.75;5099736;27;45733;-67
2021/08/29 01:10:33;;;;;;;;;8.25;4.75;;;;;18.38;100.00;101971.19;5099888;27;45214;-66
2021/08/29 01:12:59;;;;;;;;;6.00;5.00;;;;;18.35;100.00;101970.34;5099901;27;45344;-66
2021/08/29 01:15:28;;;;;;;;;6.25;5.00;;;;;18.39;100.00;101979.06;5099202;27;47421;-66
2021/08/29 01:17:57;;;;;;;;;7.25;6.00;;;;;18.39;100.00;101976.44;5099560;27;45620;-66
2021/08/29 01:20:36;;;;;;;;;5.25;4.75;;;;;18.38;100.00;101971.19;5098122;27;45337;-66
2021/08/29 01:23:03;;;;;;;;;5.25;4.75;;;;;18.35;100.00;101973.00;5099773;27;45296;-65
2021/08/29 01:25:35;;;;;;;;;6.50;5.00;;;;;18.39;100.00;101968.50;5099285;27;46628;-67
2021/08/29 01:28:12;;;;;;;;;6.00;6.00;;;;;18.43;100.00;101975.44;5099100;27;45162;-66
2021/08/29 01:30:38;;;;;;;;;5.00;4.00;;;;;18.47;100.00;101979.72;5115040;27;45319;-65
2021/08/29 01:33:07;;;;;;;;;5.50;5.50;;;;;18.43;100.00;101964.84;5099604;27;45359;-65
2021/08/29 01:35:33;;;;;;;;;5.50;5.00;;;;;18.52;100.00;101979.59;5098885;27;47114;-65
2021/08/29 01:38:00;;;;;;;;;4.75;4.00;;;;;18.55;100.00;101974.22;5098836;27;45481;-65
2021/08/29 01:40:26;;;;;;;;;5.00;4.75;;;;;18.58;100.00;101975.03;5099029;27;45355;-65
2021/08/29 01:42:52;;;;;;;;;6.25;5.00;;;;;18.56;100.00;101971.56;5099402;27;45305;-66
2021/08/29 01:45:18;;;;;;;;;4.75;4.00;;;;;18.50;100.00;101965.53;5099009;27;46259;-66
2021/08/29 01:47:44;;;;;;;;;6.00;5.00;;;;;18.53;100.00;101963.66;5099119;27;45370;-66
2021/08/29 01:50:10;;;;;;;;;6.00;5.00;;;;;18.48;100.00;101960.28;5099113;27;45216;-65
2021/08/29 01:52:35;;;;;;;;;4.25;4.25;;;;;18.50;100.00;101962.91;5099288;27;45341;-66
2021/08/29 01:55:01;;;;;;;;;6.00;5.25;;;;;18.44;100.00;101961.28;5098829;27;46452;-65
2021/08/29 01:57:26;;;;;;;;;5.50;5.50;;;;;18.45;100.00;101973.59;5097412;27;45386;-66
2021/08/29 01:59:52;;;;;;;;;6.00;5.25;;;;;18.41;100.00;101973.75;5098762;27;45350;-66
2021/08/29 02:02:17;;;;;;;;;5.75;5.50;;;;;18.37;100.00;101972.97;5099078;27;45391;-65
2021/08/29 02:04:45;;;;;;;;;5.75;4.75;;;;;18.35;100.00;101973.00;5098684;27;45491;-65
2021/08/29 02:07:28;;;;;;;;;6.50;5.00;;;;;18.33;100.00;101981.84;5097785;27;45202;-66
2021/08/29 02:10:06;;;;;;;;;5.00;5.00;;;;;18.24;100.00;101964.47;5098968;27;45378;-66
2021/08/29 02:12:36;;;;;;;;;8.50;7.00;;;;;18.22;100.00;101978.63;5098702;27;45161;-66
2021/08/29 02:15:07;;;;;;;;;4.75;4.00;;;;;18.22;100.00;101976.88;5098756;27;45434;-66
2021/08/29 02:17:34;;;;;;;;;12.50;7.00;;;;;18.18;100.00;101982.28;5098434;27;45277;-67
2021/08/29 02:20:05;;;;;;;;;6.50;6.50;;;;;18.17;100.00;101983.19;5098845;27;45359;-66
2021/08/29 02:22:33;;;;;;;;;6.25;5.50;;;;;18.14;100.00;101970.91;5098715;27;45648;-67
2021/08/29 02:24:59;;;;;;;;;6.50;5.00;;;;;18.17;100.00;101983.19;5098525;27;45348;-66
2021/08/29 02:27:25;;;;;;;;;9.50;7.25;;;;;18.17;100.00;101985.84;5098472;27;45233;-66
2021/08/29 02:29:50;;;;;;;;;8.00;7.25;;;;;18.18;100.00;101982.28;5098183;27;45428;-66
2021/08/29 02:32:17;;;;;;;;;9.00;7.75;;;;;18.19;100.00;101989.28;5098357;27;45422;-67
2021/08/29 02:38:05;;;;;;;;;8.25;7.75;;;;;18.17;100.00;101977.91;5095351;27;45443;-67
2021/08/29 02:40:35;;;;;;;;;9.75;7.25;;;;;18.16;100.00;101976.16;5098059;27;45441;-65
2021/08/29 02:43:01;;;;;;;;;9.50;6.75;;;;;18.13;100.00;101971.81;5098130;27;45603;-65
2021/08/29 02:45:27;;;;;;;;;9.75;7.00;;;;;18.14;100.00;101975.34;5097856;27;47020;-66
2021/08/29 02:47:53;;;;;;;;;9.00;6.75;;;;;18.02;100.00;101966.81;5098276;27;45439;-66
2021/08/29 02:50:20;;;;;;;;;8.25;7.25;;;;;18.09;100.00;101977.22;5098015;27;45263;-66
2021/08/29 02:52:45;;;;;;;;;8.75;7.75;;;;;18.10;100.00;101978.94;5098414;27;45293;-67
2021/08/29 02:55:15;;;;;;;;;7.75;6.25;;;;;18.06;100.00;101973.75;5097643;27;46296;-66
2021/08/29 02:57:44;;;;;;;;;8.00;6.75;;;;;18.05;100.00;101972.00;5098186;27;45275;-65
2021/08/29 03:00:12;;;;;;;;;9.00;8.25;;;;;18.05;100.00;101968.50;5098224;27;45303;-66
2021/08/29 03:02:38;;;;;;;;;7.75;6.00;;;;;18.02;100.00;101969.44;5098334;27;45439;-66
2021/08/29 03:05:03;;;;;;;;;8.50;7.00;;;;;17.98;100.00;101969.56;5097564;27;46977;-65
2021/08/29 03:07:29;;;;;;;;;8.00;7.25;;;;;17.99;100.00;101968.66;5097997;27;45373;-67
2021/08/29 03:09:55;;;;;;;;;8.25;7.00;;;;;17.91;100.00;101960.06;5098016;27;45443;-66
2021/08/29 03:12:20;;;;;;;;;6.00;5.00;;;;;17.94;100.00;101971.44;5097877;27;45243;-66
2021/08/29 03:14:46;;;;;;;;;7.50;7.50;;;;;17.89;100.00;101972.44;5096246;27;47154;-66
2021/08/29 03:17:12;;;;;;;;;6.00;5.75;;;;;17.89;100.00;101970.69;5097634;27;45220;-67
2021/08/29 03:22:59;;;;;;;;;7.25;6.25;;;;;17.82;100.00;101970.84;5101444;27;45486;-67
2021/08/29 03:25:24;;;;;;;;;7.00;6.50;;;;;17.79;100.00;101963.88;5101006;27;46999;-66
2021/08/29 03:27:50;;;;;;;;;6.50;5.75;;;;;17.77;100.00;101968.31;5101077;27;45375;-67
2021/08/29 03:30:15;;;;;;;;;12.75;6.00;;;;;17.73;100.00;101964.03;5100981;27;45246;-67
2021/08/29 03:32:42;;;;;;;;;6.25;6.25;;;;;17.71;100.00;101965.84;5101149;27;45561;-66
2021/08/29 03:35:08;;;;;;;;;8.00;7.00;;;;;17.68;100.00;101963.28;5101149;27;45582;-66
2021/08/29 03:37:34;;;;;;;;;7.00;6.50;;;;;17.63;100.00;101954.53;5100973;27;45247;-66
2021/08/29 03:40:01;;;;;;;;;7.75;7.00;;;;;17.56;100.00;101952.97;5101274;27;45271;-66
2021/08/29 03:42:29;;;;;;;;;7.75;5.75;;;;;17.58;100.00;101956.44;5099827;27;45431;-67
2021/08/29 03:44:54;;;;;;;;;7.25;6.00;;;;;17.56;100.00;101958.25;5101035;27;46379;-66
2021/08/29 03:47:20;;;;;;;;;7.75;6.00;;;;;17.47;100.00;101950.53;5100902;27;45489;-66
2021/08/29 03:53:08;;;;;;;;;8.50;6.75;;;;;17.51;100.00;101954.84;5100925;27;45354;-66
2021/08/29 03:55:34;;;;;;;;;7.25;6.75;;;;;17.48;100.00;101952.28;5100929;27;45460;-66
2021/08/29 03:58:01;;;;;;;;;5.50;5.50;;;;;17.49;100.00;101948.75;5100761;27;45358;-66
2021/08/29 04:00:27;;;;;;;;;8.50;7.25;;;;;17.48;100.00;101960.22;5100975;27;45242;-67
2021/08/29 04:02:52;;;;;;;;;8.00;7.00;;;;;17.45;100.00;101954.09;5100743;27;45304;-67
2021/08/29 04:05:18;;;;;;;;;7.00;6.00;;;;;17.41;100.00;101948.91;5100344;27;46948;-67
2021/08/29 04:07:45;;;;;;;;;6.50;5.75;;;;;17.43;100.00;101963.81;5100385;27;45331;-67
2021/08/29 04:10:15;;;;;;;;;8.00;7.25;;;;;17.39;100.00;101954.22;5100661;27;45314;-67
2021/08/29 04:12:42;;;;;;;;;9.00;7.00;;;;;17.40;100.00;101955.94;5100660;27;45318;-66
2021/08/29 04:15:08;;;;;;;;;6.50;6.00;;;;;17.40;100.00;101961.22;5098863;27;47385;-66
2021/08/29 04:24:00;;;;;;;;;6.25;6.00;;;;;17.40;100.00;101963.88;5100504;27;45283;-66
2021/08/29 04:26:26;;;;;;;;;9.25;7.75;;;;;17.45;100.00;101967.28;5100300;27;46709;-67
2021/08/29 04:28:52;;;;;;;;;7.00;5.50;;;;;17.49;100.00;101956.66;5099999;27;45286;-67
2021/08/29 04:31:33;;;;;;;;;6.50;5.25;;;;;17.51;100.00;101965.41;5098312;27;45369;-67
2021/08/29 04:34:04;;;;;;;;;4.75;4.00;;;;;17.53;100.00;101964.47;5100207;27;45326;-67
2021/08/29 04:36:30;;;;;;;;;5.00;4.00;;;;;17.52;100.00;101957.44;5100223;27;46563;-67
2021/08/29 04:38:59;;;;;;;;;7.00;5.00;;;;;17.55;100.00;101962.66;5099859;27;45600;-66
2021/08/29 04:41:24;;;;;;;;;6.75;5.75;;;;;17.58;100.00;101962.56;5100301;27;45378;-67
2021/08/29 04:43:49;;;;;;;;;8.00;5.00;;;;;17.58;100.00;101957.28;5100235;27;45278;-66
2021/08/29 04:46:15;;;;;;;;;6.00;5.00;;;;;17.57;100.00;101955.56;5098460;27;47262;-66
2021/08/29 04:48:41;;;;;;;;;7.00;6.00;;;;;17.53;100.00;101947.75;5099642;27;45351;-67
2021/08/29 04:51:06;;;;;;;;;7.25;6.50;;;;;17.54;100.00;101966.19;5100104;27;45248;-66
2021/08/29 04:53:31;;;;;;;;;6.75;5.50;;;;;17.49;100.00;101961.94;5100071;27;45408;-66
2021/08/29 04:55:57;;;;;;;;;5.75;4.75;;;;;17.42;100.00;101956.78;5099566;27;47180;-66
2021/08/29 04:58:22;;;;;;;;;4.00;4.00;;;;;17.45;100.00;101969.94;5099909;27;45310;-67
2021/08/29 05:00:48;;;;;;;;;6.00;5.00;;;;;17.39;100.00;101956.84;5099930;27;45249;-66
2021/08/29 05:03:13;;;;;;;;;6.50;5.00;;;;;17.43;100.00;101962.97;5099665;27;45264;-66
2021/08/29 05:05:38;;;;;;;;;6.50;5.50;;;;;17.39;100.00;101954.22;5099659;27;45268;-65
2021/08/29 05:08:04;;;;;;;;;5.00;5.00;;;;;17.51;100.00;101975.97;5099445;27;45480;-65
2021/08/29 05:10:29;;;;;;;;;9.00;6.75;;;;;17.53;100.00;101975.03;5099524;27;45220;-66
2021/08/29 05:12:55;;;;;;;;;8.25;7.00;;;;;17.59;100.00;101976.66;5099768;27;45448;-66
2021/08/29 05:15:20;;;;;;;;;5.50;5.25;;;;;17.58;100.00;101975.78;5099222;27;46896;-66
2021/08/29 05:17:45;;;;;;;;;5.75;5.25;;;;;17.61;100.00;101967.78;5099513;27;45350;-66
2021/08/29 05:20:11;;;;;;;;;9.75;6.75;;;;;17.68;100.00;101977.34;5099513;27;45322;-65
2021/08/29 05:22:37;;;;;;;;;7.00;6.00;;;;;17.73;100.00;101986.03;5099891;27;45324;-66
2021/08/29 05:25:03;;;;;;;;;6.50;5.75;;;;;17.72;100.00;101970.22;5099110;27;47088;-66
2021/08/29 05:27:28;;;;;;;;;7.75;6.50;;;;;17.80;100.00;101975.31;5099148;27;45300;-66
2021/08/29 05:29:54;;;;;;;;;4.50;4.50;;;;;17.82;100.00;101977.00;5097812;27;45395;-66
2021/08/29 05:32:19;;;;;;;;;9.00;7.00;;;;;17.85;100.00;101982.19;5099538;27;45465;-66
2021/08/29 05:38:06;;;;;;;;;7.50;6.50;;;;;17.93;100.00;101977.63;5098477;27;45371;-65
2021/08/29 05:40:33;;;;;;;;;7.50;6.75;;;;;17.97;100.00;101984.56;5099151;27;45383;-66
2021/08/29 05:42:58;;;;;;;;;8.50;7.00;;;;;17.91;100.00;101960.94;5098375;27;45303;-66
2021/08/29 05:45:24;;;;;;;;;7.50;6.25;;;;;18.04;100.00;101975.56;5098644;27;47145;-66
2021/08/29 05:47:49;;;;;;;;;8.50;6.25;;;;;18.00;100.00;101959.81;5098926;27;45362;-65
2021/08/29 05:50:15;;;;;;;;;8.50;8.50;;;;;18.05;100.00;101966.72;5099081;27;45381;-66
2021/08/29 05:52:40;;;;;;;;;9.25;8.00;;;;;18.11;100.00;101970.13;5099007;27;45489;-65
2021/08/29 05:55:06;;;;;;;;;7.25;5.00;;;;;18.16;100.00;101971.75;5098871;27;46026;-66
2021/08/29 05:57:31;;;;;;;;;8.75;6.00;;;;;18.15;100.00;101966.50;5098679;27;45298;-65
2021/08/29 05:59:57;;;;;;;;;7.00;6.75;;;;;18.22;100.00;101970.72;5099024;27;45274;-65
2021/08/29 06:02:23;;;;;;;;;7.00;6.50;;;;;18.22;100.00;101965.41;5099224;27;45432;-66
2021/08/29 06:08:10;;;;;;;;;7.00;6.00;;;;;18.31;100.00;101965.16;5098486;27;45703;-66
2021/08/29 06:10:35;;;;;;;;;7.25;6.00;;;;;18.39;100.00;101975.56;5099023;27;45338;-66
2021/08/29 06:13:00;;;;;;;;;5.25;5.25;;;;;18.43;100.00;101967.50;5099021;27;45231;-66
2021/08/29 06:15:26;;;;;;;;;7.00;6.00;;;;;18.39;100.00;101955.28;5098545;27;45258;-66
2021/08/29 06:17:51;;;;;;;;;6.00;5.00;;;;;18.54;100.00;101972.47;5098602;27;45382;-64
2021/08/29 06:20:17;;;;;;;;;7.75;6.00;;;;;18.58;100.00;101967.09;5098661;27;45341;-65
2021/08/29 06:22:42;;;;;;;;;7.75;6.00;;;;;18.74;100.00;101975.47;5098696;27;45312;-66
2021/08/29 06:25:08;;;;;;;;;7.00;5.75;;;;;18.80;100.00;101970.03;5098093;27;47301;-65
2021/08/29 06:27:33;;;;;;;;;7.00;7.00;;;;;18.92;100.00;101974.94;5098539;27;45217;-67
2021/08/29 06:29:58;;;;;;;;;7.00;6.25;;;;;18.96;100.00;101975.72;5098229;27;45247;-66
2021/08/29 06:32:26;;;;;;;;;5.25;5.00;;;;;19.02;100.00;101972.91;5098532;27;45214;-67
2021/08/29 06:38:14;;;;;;;;;6.75;6.00;;;;;19.19;100.00;101970.59;5096868;27;45219;-66
2021/08/29 06:40:39;;;;;;;;;7.25;5.50;;;;;19.31;100.00;101976.44;5098474;27;45264;-66
2021/08/29 06:43:04;;;;;;;;;5.50;5.25;;;;;19.36;100.00;101982.47;5098560;27;45363;-66
2021/08/29 06:45:30;;;;;;;;;6.25;5.00;;;;;19.41;100.00;101985.84;5096538;27;48195;-66
2021/08/29 06:47:55;;;;;;;;;6.00;5.75;;;;;19.43;100.00;101991.94;5098171;27;45239;-65
2021/08/29 06:50:20;;;;;;;;;6.00;6.00;;;;;19.44;100.00;101981.31;5098271;27;45401;-66
2021/08/29 06:52:46;;;;;;;;;6.50;5.25;;;;;19.35;100.00;101959.56;5098502;27;45326;-66
2021/08/29 06:55:11;;;;;;;;;5.00;4.00;;;;;19.46;100.00;101979.50;5101174;27;46621;-66
2021/08/29 06:57:38;;;;;;;;;5.25;5.00;;;;;19.38;100.00;101965.63;5101545;27;45412;-66
2021/08/29 07:00:03;;;;;;;;;6.00;5.25;;;;;19.52;100.00;101989.03;5101567;27;45398;-66
2021/08/29 07:02:29;;;;;;;;;7.00;5.00;;;;;19.54;100.00;101984.59;5101575;27;45341;-67
2021/08/29 07:08:16;;;;;;;;;4.75;4.00;;;;;19.60;100.00;101980.88;5101357;27;45565;-66
2021/08/29 07:10:41;;;;;;;;;7.25;7.00;;;;;19.65;100.00;101977.13;5101358;27;45432;-67
2021/08/29 07:13:07;;;;;;;;;7.00;6.00;;;;;19.74;100.00;101974.22;5101556;27;45363;-67
2021/08/29 07:15:32;;;;;;;;;6.75;5.00;;;;;19.82;100.00;101982.78;5101088;27;46186;-67
2021/08/29 07:17:58;;;;;;;;;5.25;5.25;;;;;19.87;100.00;101980.81;5101134;27;45475;-66
2021/08/29 07:20:26;;;;;;;;;5.00;4.00;;;;;20.01;100.00;101984.81;5101363;27;45233;-67
2021/08/29 07:22:51;;;;;;;;;7.00;7.00;;;;;20.07;100.00;101981.94;5101381;27;45470;-67
2021/08/29 07:25:17;;;;;;;;;7.75;6.00;;;;;20.15;100.00;101977.28;5101206;27;46371;-67
2021/08/29 07:27:42;;;;;;;;;5.50;5.00;;;;;20.23;100.00;101977.00;5101258;27;45304;-67
2021/08/29 07:30:08;;;;;;;;;5.00;5.00;;;;;20.34;100.00;101982.78;5100986;27;45354;-66
2021/08/29 07:32:33;;;;;;;;;5.00;5.00;;;;;20.39;100.00;101987.03;5101164;27;45257;-66
2021/08/29 07:38:20;;;;;;;;;7.00;5.50;;;;;20.39;100.00;101976.41;5099551;27;45307;-66
2021/08/29 07:40:45;;;;;;;;;6.25;4.75;;;;;20.42;100.00;101978.13;5100911;27;45324;-67
2021/08/29 07:43:11;;;;;;;;;7.25;6.00;;;;;20.43;100.00;101975.41;5101018;27;45320;-66
2021/08/29 07:45:36;;;;;;;;;7.50;7.00;;;;;20.48;100.00;101981.41;5100956;27;46242;-66
2021/08/29 07:48:02;;;;;;;;;9.25;7.75;;;;;20.58;100.00;101981.06;5101004;27;45215;-66
2021/08/29 07:50:28;;;;;;;;;8.50;8.25;;;;;20.62;100.00;101986.25;5100902;27;45248;-67
2021/08/29 07:52:56;;;;;;;;;5.75;3.75;;;;;20.59;100.00;101981.00;5101018;27;45199;-67
2021/08/29 07:55:21;;;;;;;;;7.00;6.00;;;;;20.66;100.00;101984.34;5100637;27;45641;-66
2021/08/29 07:57:47;;;;;;;;;5.75;5.00;;;;;20.68;100.00;101988.66;5100784;27;45319;-67
2021/08/29 08:00:13;;;;;;;;;5.50;5.00;;;;;20.68;100.00;101982.50;5100671;27;45314;-67
2021/08/29 08:02:38;;;;;;;;;6.00;5.00;;;;;20.69;100.00;101986.88;5101028;27;45292;-66
2021/08/29 08:08:28;;;;;;;;;8.00;6.00;;;;;20.72;100.00;101984.97;5100432;27;45722;-67
2021/08/29 08:10:53;;;;;;;;;4.00;4.00;;;;;20.80;100.00;101989.97;5100758;27;45456;-67
2021/08/29 08:13:22;;;;;;;;;4.25;4.00;;;;;20.77;100.00;101980.34;5100821;27;45326;-67
2021/08/29 08:15:47;;;;;;;;;5.75;5.75;;;;;20.85;100.00;101990.69;5100485;27;45417;-67
2021/08/29 08:18:12;;;;;;;;;7.00;7.00;;;;;20.87;100.00;101988.84;5100255;27;45203;-67
2021/08/29 08:20:38;;;;;;;;;5.25;4.50;;;;;20.88;100.00;101985.28;5100471;27;45270;-66
2021/08/29 08:23:03;;;;;;;;;6.75;5.00;;;;;20.86;100.00;101984.47;5100752;27;45213;-67
2021/08/29 08:25:28;;;;;;;;;3.75;3.50;;;;;20.86;100.00;101984.47;5100179;27;46289;-66
2021/08/29 08:27:54;;;;;;;;;4.50;3.00;;;;;20.85;100.00;101988.06;5100378;27;45440;-67
2021/08/29 08:30:19;;;;;;;;;4.25;3.50;;;;;20.79;100.00;101981.16;5100278;27;45702;-67
2021/08/29 08:32:45;;;;;;;;;3.75;3.75;;;;;20.80;100.00;101992.63;5100516;27;45309;-67
2021/08/29 08:38:31;;;;;;;;;3.75;3.75;;;;;20.99;100.00;101983.06;5097495;27;45718;-67
2021/08/29 08:40:57;;;;;;;;;6.00;3.00;;;;;21.15;100.00;101972.72;5115739;27;45775;-67
2021/08/29 08:43:22;;;;;;;;;4.25;3.00;;;;;21.42;100.00;101981.44;5100313;27;45351;-66
2021/08/29 08:45:49;;;;;;;;;7.50;6.25;;;;;21.58;100.00;101982.56;5099442;27;47028;-65
2021/08/29 08:48:15;;;;;;;;;7.75;7.25;;;;;21.70;100.00;101990.03;5099743;27;45258;-66
2021/08/29 08:50:45;;;;;;;;;2.25;2.25;;;;;21.82;100.00;101985.16;5099508;27;45414;-66
2021/08/29 08:53:16;;;;;;;;;2.00;2.00;;;;;22.00;100.00;101982.59;5099980;27;45383;-65
2021/08/29 08:55:43;;;;;;;;;7.25;6.25;;;;;22.21;100.00;101978.19;5099866;27;46241;-65
2021/08/29 08:58:09;;;;;;;;;4.25;3.00;;;;;22.47;100.00;101984.19;5099744;27;45308;-65
2021/08/29 09:00:35;;;;;;;;;5.00;2.75;;;;;22.65;100.00;101978.03;5099599;27;45427;-67
2021/08/29 09:03:01;;;;;;;;;4.00;3.00;;;;;22.80;100.00;101987.13;5099855;27;45457;-66
2021/08/29 09:08:48;;;;;;;;;2.25;2.25;;;;;22.80;100.00;101985.31;5099144;27;45639;-66
2021/08/29 09:11:14;;;;;;;;;3.00;3.00;;;;;22.82;100.00;101987.94;5099270;27;45870;-66
2021/08/29 09:13:48;;;;;;;;;3.00;3.00;;;;;22.84;100.00;101988.72;5099742;27;45341;-66
2021/08/29 09:16:19;;;;;;;;;2.25;2.25;;;;;22.88;100.00;101975.22;5098909;27;46767;-65
2021/08/29 09:18:48;;;;;;;;;4.00;4.00;;;;;22.99;100.00;101984.50;5099489;27;45290;-66
2021/08/29 09:21:28;;;;;;;;;3.00;3.00;;;;;23.12;100.00;101983.03;5099633;27;45314;-66
2021/08/29 09:23:55;;;;;;;;;3.00;3.00;;;;;23.30;100.00;101981.25;5099674;27;45218;-66
2021/08/29 09:26:23;;;;;;;;;6.00;4.50;;;;;23.40;100.00;101978.09;5099332;27;46587;-65
2021/08/29 09:28:49;;;;;;;;;4.75;4.75;;;;;23.44;100.00;101981.47;5099132;27;45308;-66
2021/08/29 09:31:16;;;;;;;;;3.00;3.00;;;;;23.47;100.00;101979.53;5099608;27;45410;-66
2021/08/29 09:33:42;;;;;;;;;4.50;4.25;;;;;23.52;100.00;101973.97;5099279;27;45295;-65
2021/08/29 09:36:11;;;;;;;;;3.00;2.75;;;;;23.53;100.00;101973.88;5099038;27;45583;-64
2021/08/29 09:38:41;;;;;;;;;4.75;3.50;;;;;23.57;100.00;101969.31;5098774;27;45664;-66
2021/08/29 09:41:21;;;;;;;;;4.75;3.25;;;;;23.73;100.00;101970.28;5098940;27;45445;-67
2021/08/29 09:43:48;;;;;;;;;5.50;4.50;;;;;23.83;100.00;101974.22;5099398;27;45312;-65
2021/08/29 09:46:14;;;;;;;;;2.50;2.50;;;;;23.97;100.00;101964.66;5099070;27;45639;-66
2021/08/29 09:48:45;;;;;;;;;3.75;3.50;;;;;24.08;100.00;101956.97;5098582;27;45327;-65
2021/08/29 09:51:11;;;;;;;;;3.50;3.50;;;;;24.35;100.00;101962.72;5099002;27;45365;-65
2021/08/29 09:53:44;;;;;;;;;5.00;3.75;;;;;24.47;100.00;101971.91;5099316;27;45418;-66
2021/08/29 09:56:21;;;;;;;;;4.50;3.75;;;;;24.48;100.00;101963.81;5098573;27;47162;-66
2021/08/29 09:58:47;;;;;;;;;2.75;2.75;;;;;24.56;100.00;101966.91;5098580;27;45546;-66
2021/08/29 10:01:17;;;;;;;;;4.00;4.00;;;;;24.66;100.00;101956.59;5098774;27;45397;-65
2021/08/29 10:03:52;;;;;;;;;4.25;4.25;;;;;24.61;100.00;101959.53;5099027;27;45334;-66
2021/08/29 10:06:21;;;;;;;;;3.25;3.25;;;;;24.38;100.00;101962.53;5098576;27;46531;-66
2021/08/29 10:08:49;;;;;;;;;5.25;3.75;;;;;24.08;100.00;101971.19;5098306;27;45414;-66
2021/08/29 10:11:15;;;;;;;;;5.50;5.25;;;;;23.83;100.00;101966.22;5098746;27;45383;-65
2021/08/29 10:13:41;;;;;;;;;7.25;6.00;;;;;23.74;100.00;101968.47;5098879;27;45429;-66
2021/08/29 10:16:08;;;;;;;;;5.50;5.50;;;;;23.73;100.00;101958.75;5098513;27;45440;-64
2021/08/29 10:18:37;;;;;;;;;7.75;7.25;;;;;23.91;100.00;101972.97;5098571;27;45216;-65
2021/08/29 10:21:03;;;;;;;;;5.00;5.00;;;;;24.08;100.00;101959.63;5097066;27;45335;-65
2021/08/29 10:23:29;;;;;;;;;5.50;5.50;;;;;24.29;100.00;101957.69;5098491;27;45339;-65
2021/08/29 10:25:57;;;;;;;;;10.00;8.00;;;;;24.37;100.00;101955.47;5097342;27;46697;-66
2021/08/29 10:28:26;;;;;;;;;5.25;4.75;;;;;24.57;100.00;101955.28;5097550;27;45278;-67
2021/08/29 10:30:55;;;;;;;;;7.00;6.25;;;;;24.74;100.00;101957.94;5098073;27;45233;-65
2021/08/29 10:33:22;;;;;;;;;5.50;5.50;;;;;24.97;100.00;101961.16;5098368;27;45459;-65
2021/08/29 10:39:10;;;;;;;;;4.25;3.75;;;;;25.42;100.00;101954.22;5091723;27;45494;-65
2021/08/29 10:41:36;;;;;;;;;5.00;5.00;;;;;25.83;100.00;101951.84;5098357;27;45284;-66
2021/08/29 10:44:01;;;;;;;;;7.00;6.00;;;;;26.16;100.00;101941.78;5098183;27;45314;-66
2021/08/29 10:46:27;;;;;;;;;6.00;6.00;;;;;26.50;100.00;101950.47;5097883;27;47297;-66
2021/08/29 10:48:54;;;;;;;;;6.00;5.00;;;;;26.93;100.00;101953.97;5097986;27;45876;-66
2021/08/29 10:51:27;;;;;;;;;6.00;5.00;;;;;27.15;100.00;101943.63;5098902;27;45489;-66
2021/08/29 10:53:54;;;;;;;;;6.00;5.00;;;;;27.56;100.00;101940.06;5098048;27;45362;-65
2021/08/29 10:56:32;;;;;;;;;5.00;5.00;;;;;27.66;100.00;101935.84;5097907;27;45483;-66
2021/08/29 10:59:09;;;;;;;;;5.75;5.00;;;;;27.52;100.00;101935.88;5097942;27;45523;-66
2021/08/29 11:01:45;;;;;;;;;5.00;4.00;;;;;27.49;100.00;101937.91;5097823;27;45424;-66
2021/08/29 11:04:26;;;;;;;;;5.00;5.00;;;;;27.51;100.00;101925.22;5097976;27;45425;-66
2021/08/29 11:07:06;;;;;;;;;8.00;5.00;;;;;27.67;100.00;101929.50;5097566;27;46433;-66
2021/08/29 11:09:34;;;;;;;;;7.00;6.00;;;;;27.70;100.00;101931.13;5097362;27;45362;-66
2021/08/29 11:12:15;;;;;;;;;6.00;6.00;;;;;27.65;100.00;101926.06;5097670;27;45228;-66
2021/08/29 11:14:48;;;;;;;;;7.50;5.25;;;;;27.60;100.00;101925.47;5098067;27;45304;-66
2021/08/29 11:17:19;;;;;;;;;6.00;5.00;;;;;27.50;100.00;101926.19;5097291;27;46523;-66
2021/08/29 11:20:07;;;;;;;;;5.25;3.75;;;;;27.36;100.00;101922.59;5097738;27;45228;-65
2021/08/29 11:22:41;;;;;;;;;4.25;4.25;;;;;27.30;100.00;101931.06;5091908;27;45343;-66
2021/08/29 11:25:21;;;;;;;;;6.00;6.00;;;;;27.09;100.00;101924.41;5097721;27;45291;-65
2021/08/29 11:27:49;;;;;;;;;5.25;4.50;;;;;26.99;100.00;101931.31;5097108;27;45646;-66
2021/08/29 11:30:18;;;;;;;;;8.25;7.25;;;;;26.83;100.00;101931.41;5097595;27;45368;-66
2021/08/29 11:32:44;;;;;;;;;6.25;5.00;;;;;26.63;100.00;101926.44;5097650;27;45281;-65
2021/08/29 11:35:17;;;;;;;;;6.00;6.00;;;;;26.43;100.00;101922.34;5097868;27;45461;-65
2021/08/29 11:38:07;;;;;;;;;5.00;4.25;;;;;26.15;100.00;101913.28;5097513;27;45705;-65
2021/08/29 11:40:47;;;;;;;;;6.00;6.00;;;;;25.89;100.00;101914.88;5097943;27;45521;-65
2021/08/29 11:43:30;;;;;;;;;6.25;5.50;;;;;25.65;100.00;101917.16;5101221;27;45425;-66
2021/08/29 11:45:58;;;;;;;;;5.25;5.00;;;;;25.34;100.00;101927.88;5101151;27;45542;-66
2021/08/29 11:48:27;;;;;;;;;5.00;4.75;;;;;25.06;100.00;101917.03;5100827;27;45350;-65
2021/08/29 11:50:52;;;;;;;;;4.00;4.00;;;;;24.78;100.00;101918.53;5100938;27;45515;-65
2021/08/29 11:53:18;;;;;;;;;4.50;4.50;;;;;24.63;100.00;101922.91;5100700;27;45283;-65
2021/08/29 11:55:44;;;;;;;;;4.00;4.00;;;;;24.51;100.00;101915.56;5100862;27;45259;-66
2021/08/29 11:58:20;;;;;;;;;4.00;4.00;;;;;24.42;100.00;101930.25;5100682;27;45298;-63
2021/08/29 12:00:49;;;;;;;;;3.75;3.75;;;;;24.35;100.00;101920.00;5100459;27;45275;-64
2021/08/29 12:03:16;;;;;;;;;5.00;5.00;;;;;24.17;100.00;101913.78;5100940;27;45349;-65
2021/08/29 12:06:30;;;;;;;;;4.25;4.25;;;;;24.04;100.00;101913.59;5101016;27;45301;-65
2021/08/29 12:09:22;;;;;;;;;5.75;5.25;;;;;24.05;100.00;101917.09;5057586;28;45731;-65
2021/08/29 12:11:48;;;;;;;;;5.00;4.75;;;;;24.16;100.00;101912.06;5057706;28;45458;-65
2021/08/29 12:14:22;;;;;;;;;6.00;4.25;;;;;24.33;100.00;101909.41;5057648;28;45419;-66
2021/08/29 12:16:53;;;;;;;;;6.00;5.00;;;;;24.55;100.00;101910.94;5057629;28;45329;-66